Time;durP1;ratioP1;P1;durP2;ratioP2;P2;SDS_P1;SDS_P2;PMS_P1;PMS_P2;Temp;Humidity;BMP_temperature;BMP_pressure;BME280_temperature;BME280_humidity;BME280_pressure;Samples;Min_cycle;Max_cycle;Signal;HPM_P1;HPM_P2
2024/03/27 00:00:11;;;;;;;3.10;1.87;;;;;;;10.33;43.57;95776.72;6290821;28;20193;-54
2024/03/27 00:03:12;;;;;;;3.43;1.90;;;;;;;10.19;45.24;95777.69;6287445;28;20206;-56
2024/03/27 00:06:13;;;;;;;3.67;2.10;;;;;;;10.17;44.65;95777.19;6291381;28;20188;-57
2024/03/27 00:09:15;;;;;;;4.17;2.10;;;;;;;10.15;44.89;95776.66;6293036;28;20182;-58
2024/03/27 00:12:17;;;;;;;4.13;1.80;;;;;;;10.12;45.09;95774.59;6290325;28;20947;-57
2024/03/27 00:15:18;;;;;;;3.70;2.20;;;;;;;10.12;44.40;95769.25;6290678;28;20201;-59
2024/03/27 00:18:19;;;;;;;4.33;2.43;;;;;;;10.03;45.44;95769.09;6293642;28;20239;-58
2024/03/27 00:21:21;;;;;;;4.10;1.93;;;;;;;10.04;45.20;95755.50;6290858;28;20199;-58
2024/03/27 00:24:22;;;;;;;4.63;1.93;;;;;;;10.02;45.83;95743.59;6291943;28;20209;-58
2024/03/27 00:27:23;;;;;;;2.00;1.80;;;;;;;9.83;46.54;95754.97;6305255;28;20189;-58
2024/03/27 00:30:24;;;;;;;3.70;2.20;;;;;;;9.98;45.49;95753.19;6290488;28;20200;-57
2024/03/27 00:33:25;;;;;;;2.60;1.80;;;;;;;9.86;46.36;95737.66;6295757;28;20548;-59
2024/03/27 00:36:27;;;;;;;3.43;1.80;;;;;;;9.78;46.82;95739.06;6291640;28;20199;-57
2024/03/27 00:39:28;;;;;;;3.50;1.97;;;;;;;9.74;46.90;95726.63;6297461;28;20923;-56
2024/03/27 00:42:29;;;;;;;2.53;2.00;;;;;;;9.80;46.58;95736.13;6302978;28;20214;-57
2024/03/27 00:45:30;;;;;;;3.27;2.13;;;;;;;9.70;46.42;95730.94;6302713;28;20570;-58
2024/03/27 00:48:32;;;;;;;5.97;2.30;;;;;;;9.69;46.47;95732.78;6297876;28;20845;-57
2024/03/27 00:51:33;;;;;;;2.77;2.03;;;;;;;9.72;46.47;95716.28;6297948;28;20538;-55
2024/03/27 00:54:35;;;;;;;2.90;2.07;;;;;;;9.64;46.86;95722.22;6296227;28;20203;-58
2024/03/27 00:57:36;;;;;;;3.50;2.07;;;;;;;9.65;47.77;95710.50;6299762;28;20694;-58
2024/03/27 01:00:37;;;;;;;3.27;1.90;;;;;;;9.46;47.70;95702.50;6300855;28;20195;-59
2024/03/27 01:03:38;;;;;;;3.90;2.23;;;;;;;9.37;47.35;95706.84;6294451;28;20194;-59
2024/03/27 01:06:39;;;;;;;2.10;1.90;;;;;;;9.23;49.28;95696.09;6297646;28;20200;-58
2024/03/27 01:09:41;;;;;;;3.73;1.97;;;;;;;9.16;49.30;95716.09;6277407;28;20192;-59
2024/03/27 01:12:42;;;;;;;1.97;1.70;;;;;;;9.08;47.57;95693.59;6294249;28;20200;-58
2024/03/27 01:15:53;;;;;;;2.33;1.87;;;;;;;9.03;48.57;95683.03;6294591;28;20187;-56
2024/03/27 01:18:54;;;;;;;3.80;2.20;;;;;;;8.97;48.83;95679.63;6293529;28;20621;-58
2024/03/27 01:21:55;;;;;;;3.10;2.10;;;;;;;8.99;48.42;95689.97;6299912;28;20185;-56
2024/03/27 01:24:56;;;;;;;3.40;2.23;;;;;;;8.93;47.85;95697.19;6294452;28;20195;-60
2024/03/27 01:27:57;;;;;;;4.10;2.20;;;;;;;8.84;49.94;95698.06;6293778;28;20198;-58
2024/03/27 01:30:58;;;;;;;3.50;2.20;;;;;;;8.81;50.40;95682.69;6281407;28;20204;-58
2024/03/27 01:33:59;;;;;;;3.40;2.13;;;;;;;8.86;49.38;95674.66;6301723;28;20562;-55
2024/03/27 01:37:00;;;;;;;2.47;1.97;;;;;;;8.94;49.19;95674.06;6298622;28;20230;-58
2024/03/27 01:40:01;;;;;;;3.33;1.90;;;;;;;8.78;50.45;95676.09;6292268;28;20200;-57
2024/03/27 01:43:02;;;;;;;3.07;2.03;;;;;;;8.67;50.53;95678.03;6293702;28;20189;-58
2024/03/27 01:46:08;;;;;;;2.80;2.03;;;;;;;8.65;50.37;95672.19;6293290;28;20222;-59
2024/03/27 01:49:09;;;;;;;3.23;2.00;;;;;;;8.66;50.75;95681.75;6293747;28;20191;-59
2024/03/27 01:52:11;;;;;;;5.47;2.50;;;;;;;8.61;50.87;95681.00;6294503;28;20207;-59
2024/03/27 01:55:13;;;;;;;3.73;2.37;;;;;;;8.70;49.37;95671.38;6293465;28;20555;-57
2024/03/27 01:58:14;;;;;;;3.07;2.20;;;;;;;8.72;50.26;95685.97;6302212;28;20202;-56
2024/03/27 02:01:15;;;;;;;4.93;2.07;;;;;;;8.77;51.23;95685.91;6295292;28;20221;-59
2024/03/27 02:04:16;;;;;;;3.67;2.07;;;;;;;8.64;50.82;95683.09;6294940;28;20232;-57
2024/03/27 02:07:17;;;;;;;3.57;1.67;;;;;;;8.47;52.47;95686.13;6299114;28;20236;-57
2024/03/27 02:10:18;;;;;;;2.93;2.20;;;;;;;8.28;54.13;95693.97;6302448;28;20190;-56
2024/03/27 02:13:19;;;;;;;3.80;1.70;;;;;;;8.26;54.65;95696.88;6292882;28;20189;-58
2024/03/27 02:16:21;;;;;;;2.07;1.77;;;;;;;8.16;54.64;95688.19;6293201;28;20195;-59
2024/03/27 02:19:22;;;;;;;2.93;2.10;;;;;;;8.12;56.28;95692.44;6298168;28;20230;-59
2024/03/27 02:22:25;;;;;;;4.43;2.27;;;;;;;8.31;52.55;95682.00;6292900;28;20327;-58
2024/03/27 02:25:35;;;;;;;3.77;2.10;;;;;;;8.27;53.72;95681.75;6292417;28;20199;-58
2024/03/27 02:28:37;;;;;;;3.03;2.00;;;;;;;8.12;55.46;95687.16;6292665;28;20543;-57
2024/03/27 02:31:38;;;;;;;2.40;1.80;;;;;;;8.14;54.56;95677.06;6298708;28;20207;-60
2024/03/27 02:34:39;;;;;;;3.10;2.30;;;;;;;8.26;53.16;95670.34;6295857;28;20205;-59
2024/03/27 02:37:40;;;;;;;2.47;2.07;;;;;;;8.31;53.57;95687.28;6295069;28;20753;-58
2024/03/27 02:40:41;;;;;;;3.03;2.20;;;;;;;8.21;54.96;95685.50;6264807;28;20191;-56
2024/03/27 02:43:42;;;;;;;4.40;2.00;;;;;;;8.06;54.00;95667.84;6298921;28;20325;-58
2024/03/27 02:46:43;;;;;;;5.07;2.30;;;;;;;8.23;54.29;95678.09;6297496;28;20186;-56
2024/03/27 02:49:44;;;;;;;2.77;2.07;;;;;;;7.97;55.69;95680.88;6292063;28;20194;-58
2024/03/27 02:52:45;;;;;;;5.63;2.37;;;;;;;7.93;56.30;95671.91;6298825;28;20199;-57
2024/03/27 02:55:50;;;;;;;4.63;2.10;;;;;;;7.76;56.25;95674.88;6300093;28;20191;-60
2024/03/27 02:58:51;;;;;;;2.67;2.13;;;;;;;7.86;55.54;95674.03;6295984;28;20211;-59
2024/03/27 03:01:52;;;;;;;4.83;2.40;;;;;;;7.95;56.18;95675.06;6306446;28;20198;-59
2024/03/27 03:04:53;;;;;;;3.30;2.13;;;;;;;7.88;55.72;95668.47;6309984;28;20197;-58
2024/03/27 03:07:54;;;;;;;4.07;2.00;;;;;;;8.10;54.85;95673.38;6304000;28;20232;-58
2024/03/27 03:10:55;;;;;;;5.47;2.30;;;;;;;8.33;52.01;95661.31;6298009;28;20191;-57
2024/03/27 03:13:56;;;;;;;3.50;1.93;;;;;;;8.30;54.97;95662.63;6295857;28;20205;-56
2024/03/27 03:16:58;;;;;;;6.77;2.07;;;;;;;8.06;56.42;95662.53;6311820;28;20213;-59
2024/03/27 03:19:59;;;;;;;3.30;2.20;;;;;;;8.08;54.18;95660.41;6279449;28;20230;-58
2024/03/27 03:23:00;;;;;;;2.03;1.83;;;;;;;7.98;55.11;95655.97;6290823;28;20205;-59
2024/03/27 03:26:02;;;;;;;3.63;2.00;;;;;;;7.97;53.42;95653.56;6291187;28;20270;-57
2024/03/27 03:29:03;;;;;;;3.53;1.80;;;;;;;7.94;53.53;95657.56;6296983;28;20215;-60
2024/03/27 03:32:04;;;;;;;4.03;1.50;;;;;;;7.95;54.04;95661.81;6291830;28;20204;-59
2024/03/27 03:35:06;;;;;;;2.13;1.53;;;;;;;8.12;54.57;95661.41;6291411;28;20200;-59
2024/03/27 03:38:07;;;;;;;3.47;1.80;;;;;;;7.97;53.31;95653.56;6290816;28;20243;-59
2024/03/27 03:41:10;;;;;;;2.97;2.00;;;;;;;8.17;53.62;95664.03;6288957;28;20207;-59
2024/03/27 03:44:11;;;;;;;2.97;2.00;;;;;;;8.20;52.07;95658.19;6291173;28;20225;-58
2024/03/27 03:47:12;;;;;;;3.73;2.10;;;;;;;8.19;52.81;95653.16;6282161;28;20214;-58
2024/03/27 03:50:13;;;;;;;4.53;2.13;;;;;;;8.10;55.07;95657.47;6293513;28;20194;-59
2024/03/27 03:53:15;;;;;;;5.43;2.03;;;;;;;8.06;53.28;95649.28;6292048;28;20662;-58
2024/03/27 03:56:16;;;;;;;2.60;1.80;;;;;;;8.12;54.27;95642.06;6290491;28;20195;-60
2024/03/27 03:59:17;;;;;;;3.23;2.20;;;;;;;7.99;54.63;95638.19;6290182;28;20234;-56
2024/03/27 04:02:18;;;;;;;3.50;1.83;;;;;;;7.91;55.03;95626.28;6298881;28;20198;-59
2024/03/27 04:05:19;;;;;;;2.73;1.77;;;;;;;7.74;56.86;95618.72;6297390;28;20720;-59
2024/03/27 04:08:21;;;;;;;3.20;1.90;;;;;;;7.73;57.46;95617.16;6287170;28;20199;-58
2024/03/27 04:11:22;;;;;;;2.97;1.97;;;;;;;7.76;57.36;95626.41;6280904;28;20657;-59
2024/03/27 04:14:23;;;;;;;1.87;1.70;;;;;;;7.63;56.69;95614.53;6292343;28;20194;-57
2024/03/27 04:17:24;;;;;;;1.60;1.50;;;;;;;7.75;56.22;95635.41;6295301;28;20200;-59
2024/03/27 04:20:25;;;;;;;3.37;2.20;;;;;;;7.79;55.20;95631.16;6290771;28;20222;-59
2024/03/27 04:23:26;;;;;;;2.87;2.30;;;;;;;7.78;54.02;95626.09;6301576;28;20189;-57
2024/03/27 04:26:28;;;;;;;3.53;2.20;;;;;;;7.82;55.09;95613.91;6302191;28;20193;-59
2024/03/27 04:29:31;;;;;;;3.43;1.93;;;;;;;8.07;52.69;95612.94;6288671;28;20704;-60
2024/03/27 04:32:32;;;;;;;3.40;2.20;;;;;;;7.88;53.49;95605.66;6285855;28;20899;-59
2024/03/27 04:35:33;;;;;;;2.93;2.00;;;;;;;7.68;55.39;95603.09;6290064;28;20243;-57
2024/03/27 04:38:34;;;;;;;2.43;1.90;;;;;;;7.63;55.01;95595.97;6293596;28;20217;-56
2024/03/27 04:41:35;;;;;;;2.57;2.13;;;;;;;7.44;56.46;95592.41;6292274;28;20239;-59
2024/03/27 04:44:37;;;;;;;3.33;2.00;;;;;;;7.66;54.39;95590.13;6293370;28;20191;-57
2024/03/27 04:47:39;;;;;;;6.20;2.20;;;;;;;7.49;56.09;95581.78;6290157;28;20195;-58
2024/03/27 04:50:40;;;;;;;4.00;1.87;;;;;;;7.42;56.08;95587.34;6290116;28;20194;-59
2024/03/27 04:53:41;;;;;;;5.10;2.90;;;;;;;7.60;56.15;95569.25;6295801;28;20201;-60
2024/03/27 04:56:42;;;;;;;3.07;1.87;;;;;;;7.47;56.59;95571.44;6296475;28;20205;-56
2024/03/27 04:59:45;;;;;;;2.17;1.97;;;;;;;7.45;57.25;95562.97;6297114;28;20190;-59
2024/03/27 05:02:46;;;;;;;2.37;1.80;;;;;;;7.46;58.09;95569.06;6297887;28;20182;-58
2024/03/27 05:05:47;;;;;;;1.93;1.53;;;;;;;7.45;58.43;95573.56;6302816;28;20201;-56
2024/03/27 05:08:48;;;;;;;2.80;1.80;;;;;;;7.21;59.50;95570.00;6296355;28;20193;-58
2024/03/27 05:11:49;;;;;;;3.77;1.90;;;;;;;7.36;58.48;95556.66;6290985;28;20202;-57
2024/03/27 05:14:50;;;;;;;3.87;2.03;;;;;;;7.38;57.29;95565.13;6301701;28;20193;-56
2024/03/27 05:17:52;;;;;;;3.90;2.20;;;;;;;7.50;57.78;95565.59;6296444;28;20317;-60
2024/03/27 05:20:54;;;;;;;3.83;2.30;;;;;;;7.63;56.61;95566.81;6288717;28;20198;-58
2024/03/27 05:23:55;;;;;;;3.37;2.13;;;;;;;7.62;58.72;95572.41;6288551;28;20194;-58
2024/03/27 05:26:57;;;;;;;3.20;2.30;;;;;;;7.55;60.04;95569.28;6303529;28;20198;-58
2024/03/27 05:29:59;;;;;;;2.83;2.17;;;;;;;7.52;60.64;95561.88;6293805;28;20194;-58
2024/03/27 05:33:00;;;;;;;6.97;2.80;;;;;;;7.50;61.42;95567.47;6293677;28;20196;-59
2024/03/27 05:36:01;;;;;;;4.80;2.23;;;;;;;7.65;60.65;95569.22;6296738;28;20191;-59
2024/03/27 05:39:03;;;;;;;4.67;2.47;;;;;;;7.72;60.08;95565.19;6289698;28;20221;-58
2024/03/27 05:42:04;;;;;;;3.80;2.17;;;;;;;7.87;59.45;95558.19;6293764;28;20208;-58
2024/03/27 05:45:05;;;;;;;4.43;2.40;;;;;;;7.92;58.77;95558.94;6306368;28;20195;-57
2024/03/27 05:48:06;;;;;;;5.40;2.30;;;;;;;8.03;60.22;95559.69;6298651;28;20573;-59
2024/03/27 05:51:07;;;;;;;4.97;2.20;;;;;;;8.09;59.76;95545.31;6293707;28;20198;-56
2024/03/27 05:54:08;;;;;;;3.60;2.30;;;;;;;8.29;58.19;95554.94;6293539;28;20612;-57
2024/03/27 05:57:09;;;;;;;3.43;2.10;;;;;;;8.40;58.41;95574.25;6305830;28;20196;-58
2024/03/27 06:00:12;;;;;;;3.40;2.47;;;;;;;8.50;56.93;95572.28;6303200;28;20285;-58
2024/03/27 06:03:13;;;;;;;7.63;2.50;;;;;;;8.71;55.80;95566.78;6293995;28;20203;-57
2024/03/27 06:06:15;;;;;;;4.43;2.50;;;;;;;8.71;56.98;95567.56;6293085;28;20731;-58
2024/03/27 06:09:17;;;;;;;5.57;2.23;;;;;;;8.89;56.45;95559.94;6298186;28;20594;-57
2024/03/27 06:12:18;;;;;;;3.27;2.10;;;;;;;8.88;57.40;95577.75;6305470;28;20236;-59
2024/03/27 06:15:21;;;;;;;2.73;2.37;;;;;;;8.92;56.98;95578.78;6297476;28;20202;-59
2024/03/27 06:18:22;;;;;;;5.70;2.23;;;;;;;9.14;57.09;95598.69;6292983;28;20223;-58
2024/03/27 06:21:23;;;;;;;3.57;2.40;;;;;;;9.26;54.37;95583.97;6310581;28;20191;-59
2024/03/27 06:24:24;;;;;;;4.77;2.20;;;;;;;9.32;55.63;95587.34;6305029;28;20947;-60
2024/03/27 06:27:25;;;;;;;3.53;2.23;;;;;;;9.40;54.29;95577.94;6279438;28;20203;-57
2024/03/27 06:30:26;;;;;;;4.63;2.40;;;;;;;9.42;54.44;95581.88;6301736;28;20193;-59
2024/03/27 06:33:28;;;;;;;5.70;2.70;;;;;;;9.61;53.42;95575.81;6305798;28;20246;-59
2024/03/27 06:36:29;;;;;;;4.73;2.47;;;;;;;9.64;54.98;95575.22;6293916;28;20264;-59
2024/03/27 06:39:30;;;;;;;4.30;2.47;;;;;;;9.65;54.36;95574.91;6298428;28;20188;-58
2024/03/27 06:42:31;;;;;;;5.37;2.90;;;;;;;9.77;54.60;95569.19;6294714;28;20225;-58
2024/03/27 06:45:32;;;;;;;5.80;3.03;;;;;;;9.96;53.79;95569.97;6291916;28;20576;-57
2024/03/27 06:48:43;;;;;;;4.33;2.63;;;;;;;9.92;53.50;95557.53;6298111;28;20186;-57
2024/03/27 06:51:49;;;;;;;3.90;2.67;;;;;;;9.97;54.12;95565.44;6292903;28;20201;-59
2024/03/27 06:54:51;;;;;;;5.90;2.50;;;;;;;9.97;55.07;95571.53;6297200;28;20549;-59
2024/03/27 06:57:52;;;;;;;4.30;2.80;;;;;;;10.23;53.38;95563.94;6292761;28;20634;-60
2024/03/27 07:00:54;;;;;;;5.73;2.90;;;;;;;10.29;53.82;95560.13;6285823;28;20218;-57
2024/03/27 07:03:55;;;;;;;4.73;2.90;;;;;;;10.26;52.94;95547.44;6292714;28;20193;-59
2024/03/27 07:06:56;;;;;;;3.20;2.60;;;;;;;10.33;54.20;95558.47;6298123;28;20191;-59
2024/03/27 07:09:57;;;;;;;7.20;3.23;;;;;;;10.46;53.65;95566.81;6293591;28;20193;-56
2024/03/27 07:12:59;;;;;;;3.93;2.60;;;;;;;10.62;53.01;95564.66;6293570;28;20246;-58
2024/03/27 07:16:00;;;;;;;9.37;2.93;;;;;;;10.73;52.19;95556.19;6296192;28;20190;-59
2024/03/27 07:19:01;;;;;;;4.17;2.50;;;;;;;10.80;53.10;95543.28;6294221;28;20239;-59
2024/03/27 07:22:02;;;;;;;4.87;2.90;;;;;;;10.95;52.41;95555.53;6292063;28;20287;-58
2024/03/27 07:25:03;;;;;;;7.30;3.03;;;;;;;10.90;54.28;95550.28;6296350;28;20227;-57
2024/03/27 07:28:05;;;;;;;8.47;3.13;;;;;;;10.98;53.78;95540.81;6294759;28;20606;-53
2024/03/27 07:31:06;;;;;;;3.43;2.90;;;;;;;10.98;57.04;95540.81;6291945;28;20200;-57
2024/03/27 07:34:07;;;;;;;4.53;2.87;;;;;;;11.06;54.39;95540.13;6295995;28;20194;-59
2024/03/27 07:37:08;;;;;;;5.80;3.07;;;;;;;11.18;55.85;95539.59;6291029;28;20209;-59
2024/03/27 07:40:10;;;;;;;4.20;2.83;;;;;;;11.17;54.82;95516.72;6298560;28;20210;-59
2024/03/27 07:43:11;;;;;;;5.70;3.13;;;;;;;11.23;54.76;95515.53;6297820;28;20204;-59
2024/03/27 07:46:12;;;;;;;5.53;3.17;;;;;;;11.47;54.22;95517.94;6297813;28;20219;-59
2024/03/27 07:49:13;;;;;;;4.17;2.87;;;;;;;11.61;54.75;95514.16;6292618;28;20185;-56
2024/03/27 07:52:14;;;;;;;5.03;2.87;;;;;;;11.83;56.20;95512.63;6311413;28;20703;-59
2024/03/27 07:55:16;;;;;;;2.87;2.60;;;;;;;12.13;53.82;95498.56;6296111;28;20614;-56
2024/03/27 07:58:17;;;;;;;5.20;3.03;;;;;;;12.34;53.07;95490.03;6299090;28;20206;-58
2024/03/27 08:01:18;;;;;;;4.93;2.57;;;;;;;12.60;51.41;95490.94;6292604;28;20705;-60
2024/03/27 08:04:19;;;;;;;4.47;2.80;;;;;;;12.92;51.03;95462.28;6273769;28;20205;-59
2024/03/27 08:07:21;;;;;;;3.93;2.50;;;;;;;13.07;50.54;95479.78;6299983;28;20202;-60
2024/03/27 08:10:22;;;;;;;6.83;3.30;;;;;;;13.16;49.72;95475.25;6297775;28;20843;-58
2024/03/27 08:13:24;;;;;;;5.93;2.70;;;;;;;13.24;49.04;95457.66;6295164;28;20606;-59
2024/03/27 08:16:25;;;;;;;4.67;2.23;;;;;;;13.50;50.40;95463.81;6290696;28;20787;-60
2024/03/27 08:19:26;;;;;;;6.10;3.03;;;;;;;13.77;48.60;95451.22;6289666;28;20233;-60
2024/03/27 08:22:28;;;;;;;3.07;2.50;;;;;;;14.12;48.32;95443.91;6296006;28;20636;-57
2024/03/27 08:25:32;;;;;;;6.17;2.97;;;;;;;14.44;46.74;95435.31;6298055;28;20235;-57
2024/03/27 08:28:34;;;;;;;5.00;2.90;;;;;;;14.79;48.11;95423.69;6273886;28;20193;-60
2024/03/27 08:31:35;;;;;;;10.07;3.13;;;;;;;15.07;47.16;95434.69;6303013;28;20186;-59
2024/03/27 08:34:36;;;;;;;6.13;2.90;;;;;;;15.20;44.20;95414.88;6298575;28;20193;-60
2024/03/27 08:37:37;;;;;;;4.23;2.30;;;;;;;15.35;45.85;95427.72;6295739;28;20207;-60
2024/03/27 08:40:39;;;;;;;4.10;2.40;;;;;;;15.69;44.26;95434.72;6291140;28;20197;-57
2024/03/27 08:43:40;;;;;;;6.67;2.47;;;;;;;15.44;46.20;95439.16;6295826;28;20220;-59
2024/03/27 08:46:41;;;;;;;4.07;2.67;;;;;;;15.64;44.81;95431.47;6290220;28;20194;-58
2024/03/27 08:49:42;;;;;;;3.73;2.67;;;;;;;15.92;45.82;95445.13;6290793;28;20205;-58
2024/03/27 08:52:43;;;;;;;2.93;2.27;;;;;;;16.14;43.96;95446.63;6293080;28;20190;-59
2024/03/27 08:55:44;;;;;;;4.87;2.73;;;;;;;16.19;46.43;95436.44;6292392;28;20720;-58
2024/03/27 08:58:46;;;;;;;5.93;2.57;;;;;;;16.35;44.38;95450.03;6290429;28;20277;-60
2024/03/27 09:01:47;;;;;;;4.47;2.10;;;;;;;16.65;45.84;95447.16;6292906;28;20193;-59
2024/03/27 09:04:48;;;;;;;6.77;2.80;;;;;;;16.68;43.49;95449.97;6300097;28;20301;-59
2024/03/27 09:07:50;;;;;;;4.77;2.63;;;;;;;16.64;43.74;95454.44;6293334;28;20186;-59
2024/03/27 09:10:51;;;;;;;5.13;2.53;;;;;;;16.67;44.01;95453.00;6292858;28;20643;-59
2024/03/27 09:13:52;;;;;;;4.07;2.23;;;;;;;16.40;45.60;95449.03;6295577;28;20191;-59
2024/03/27 09:16:53;;;;;;;3.63;2.10;;;;;;;16.54;45.69;95454.09;6295929;28;20201;-57
2024/03/27 09:19:54;;;;;;;4.70;2.63;;;;;;;16.72;44.74;95453.59;6285993;28;20230;-60
2024/03/27 09:22:55;;;;;;;4.90;2.13;;;;;;;16.67;46.10;95444.94;6291977;28;20202;-59
2024/03/27 09:26:01;;;;;;;7.17;2.40;;;;;;;16.67;44.69;95453.78;6296508;28;20190;-60
2024/03/27 09:29:02;;;;;;;7.63;2.87;;;;;;;16.50;45.21;95440.53;6298764;28;20182;-59
2024/03/27 09:32:03;;;;;;;5.20;2.50;;;;;;;16.70;48.11;95437.00;6300818;28;20190;-60
2024/03/27 09:35:05;;;;;;;4.30;2.50;;;;;;;16.81;47.55;95434.66;6307680;28;20201;-59
2024/03/27 09:38:06;;;;;;;4.30;2.23;;;;;;;16.69;46.72;95430.03;6306311;28;20210;-60
2024/03/27 09:41:08;;;;;;;9.63;2.73;;;;;;;16.79;46.59;95430.72;6297185;28;20198;-61
2024/03/27 09:44:11;;;;;;;4.07;1.70;;;;;;;16.92;48.19;95435.78;6302473;28;20198;-59
2024/03/27 09:47:14;;;;;;;2.07;1.50;;;;;;;16.65;47.97;95421.09;6301199;28;20585;-59
2024/03/27 09:50:15;;;;;;;4.43;1.67;;;;;;;16.35;49.24;95417.78;6297004;28;20649;-60
2024/03/27 09:53:17;;;;;;;3.70;1.97;;;;;;;16.63;47.64;95411.78;6299706;28;20199;-59
2024/03/27 09:56:18;;;;;;;4.50;1.97;;;;;;;16.85;48.47;95427.50;6293357;28;20202;-60
2024/03/27 09:59:19;;;;;;;4.70;1.73;;;;;;;16.92;50.10;95414.25;6301562;28;20670;-60
2024/03/27 10:02:26;;;;;;;3.30;1.77;;;;;;;17.35;48.39;95441.66;6276216;28;20195;-59
2024/03/27 10:05:27;;;;;;;2.97;1.70;;;;;;;17.13;46.55;95424.09;6293683;28;20188;-60
2024/03/27 10:08:28;;;;;;;3.27;1.60;;;;;;;17.26;46.80;95434.50;6302927;28;20657;-60
2024/03/27 10:11:29;;;;;;;3.73;1.90;;;;;;;17.34;47.99;95426.63;6295093;28;20190;-60
2024/03/27 10:14:31;;;;;;;7.97;1.80;;;;;;;17.67;46.17;95427.19;6302360;28;20205;-59
2024/03/27 10:17:32;;;;;;;5.17;2.20;;;;;;;17.99;47.92;95416.56;6296714;28;20206;-61
2024/03/27 10:20:35;;;;;;;4.47;1.50;;;;;;;18.27;45.93;95440.75;6293885;28;20881;-61
2024/03/27 10:23:36;;;;;;;3.30;1.70;;;;;;;17.86;45.95;95431.97;6298914;28;20201;-60
2024/03/27 10:26:37;;;;;;;8.43;1.93;;;;;;;17.79;45.80;95426.41;6285002;28;20194;-60
2024/03/27 10:29:38;;;;;;;4.13;1.60;;;;;;;17.65;47.18;95417.91;6295745;28;20654;-60
2024/03/27 10:32:40;;;;;;;5.50;1.93;;;;;;;17.70;45.77;95418.44;6292071;28;20186;-60
2024/03/27 10:35:43;;;;;;;1.90;1.33;;;;;;;17.65;48.18;95405.22;6295964;28;20194;-58
2024/03/27 10:38:45;;;;;;;1.70;1.40;;;;;;;17.97;46.95;95408.03;6297304;28;20198;-60
2024/03/27 10:41:47;;;;;;;2.73;1.83;;;;;;;17.96;46.49;95398.38;6284304;28;20588;-59
2024/03/27 10:44:49;;;;;;;4.73;2.10;;;;;;;17.96;46.01;95395.69;6281915;28;20186;-60
2024/03/27 10:47:51;;;;;;;4.77;1.97;;;;;;;17.76;45.74;95389.38;6297223;28;20542;-60
2024/03/27 10:50:53;;;;;;;3.70;2.07;;;;;;;17.77;48.77;95386.34;6297557;28;20281;-59
2024/03/27 10:53:56;;;;;;;6.07;2.20;;;;;;;17.89;47.26;95379.34;6296231;28;20188;-58
2024/03/27 10:56:58;;;;;;;5.50;2.40;;;;;;;17.64;48.01;95382.13;6277646;28;20194;-58
2024/03/27 11:00:02;;;;;;;4.27;2.10;;;;;;;17.67;47.92;95389.50;6300219;28;20194;-56
2024/03/27 11:03:04;;;;;;;5.20;2.30;;;;;;;17.47;46.65;95390.47;6275220;28;20325;-57
2024/03/27 11:06:05;;;;;;;2.80;1.83;;;;;;;17.27;47.96;95387.63;6303775;28;20196;-57
2024/03/27 11:09:14;;;;;;;6.07;2.03;;;;;;;17.34;47.59;95376.28;6295143;28;20183;-57
2024/03/27 11:12:18;;;;;;;2.53;1.70;;;;;;;17.30;47.04;95380.00;6291678;28;20245;-58
2024/03/27 11:16:19;;;;;;;3.00;1.50;;;;;;;17.33;48.63;95366.63;6294131;28;20187;-59
2024/03/27 11:19:47;;;;;;;4.47;2.13;;;;;;;17.35;47.60;95366.31;6298120;28;20716;-58
2024/03/27 11:22:52;;;;;;;3.53;2.17;;;;;;;17.38;49.02;95357.53;6296750;28;20186;-58
2024/03/27 11:25:53;;;;;;;5.50;2.53;;;;;;;17.37;49.44;95364.81;6294120;28;20672;-59
2024/03/27 11:28:54;;;;;;;4.07;2.10;;;;;;;17.48;49.22;95365.13;6297060;28;20650;-58
2024/03/27 11:32:05;;;;;;;5.70;2.50;;;;;;;17.36;49.20;95357.09;6296573;28;20201;-58
2024/03/27 11:35:07;;;;;;;3.23;2.50;;;;;;;17.15;50.45;95357.28;6292136;28;20202;-58
2024/03/27 11:38:08;;;;;;;4.30;2.63;;;;;;;17.34;49.92;95354.75;6296384;28;20898;-58
2024/03/27 11:41:11;;;;;;;4.60;2.37;;;;;;;17.61;48.62;95337.03;6298557;28;20602;-57
2024/03/27 11:44:12;;;;;;;2.93;2.60;;;;;;;17.74;49.43;95333.19;6288092;28;20251;-57
2024/03/27 11:47:17;;;;;;;6.07;2.37;;;;;;;17.84;48.41;95326.50;6307156;28;20187;-59
2024/03/27 11:50:20;;;;;;;4.70;2.57;;;;;;;17.62;48.21;95345.88;6301038;28;20215;-58
2024/03/27 11:53:21;;;;;;;7.43;2.90;;;;;;;17.51;49.89;95316.78;6301165;28;20190;-56
2024/03/27 11:56:28;;;;;;;4.80;2.73;;;;;;;17.83;48.86;95348.38;6292736;28;20205;-56
2024/03/27 11:59:29;;;;;;;3.97;3.00;;;;;;;17.98;48.20;95334.16;6281842;28;20618;-58
2024/03/27 12:02:31;;;;;;;4.17;2.60;;;;;;;17.65;48.42;95329.06;6307165;28;20188;-58
2024/03/27 12:05:33;;;;;;;4.47;2.93;;;;;;;17.12;50.46;95329.16;6298739;28;20206;-58
2024/03/27 12:08:34;;;;;;;3.83;2.53;;;;;;;16.77;51.31;95312.75;6293771;28;20265;-55
2024/03/27 12:11:35;;;;;;;5.53;2.60;;;;;;;16.70;52.85;95309.84;6289217;28;20570;-58
2024/03/27 12:14:36;;;;;;;5.13;2.67;;;;;;;16.67;51.97;95327.44;6294632;28;20197;-58
2024/03/27 12:17:39;;;;;;;4.50;3.07;;;;;;;16.55;52.94;95307.81;6296534;28;20197;-58
2024/03/27 12:20:41;;;;;;;4.63;2.70;;;;;;;16.52;53.16;95330.81;6291601;28;20188;-58
2024/03/27 12:23:43;;;;;;;4.70;2.80;;;;;;;16.66;52.35;95327.78;6295387;28;20209;-56
2024/03/27 12:26:45;;;;;;;5.03;3.10;;;;;;;16.63;53.69;95280.06;6269928;28;20204;-56
2024/03/27 12:29:50;;;;;;;5.87;2.70;;;;;;;16.94;51.99;95327.84;6300238;28;20203;-59
2024/03/27 12:32:51;;;;;;;6.63;2.97;;;;;;;16.89;52.37;95317.31;6296634;28;20669;-55
2024/03/27 12:35:52;;;;;;;6.77;2.47;;;;;;;16.91;53.24;95320.47;6301730;28;20193;-58
2024/03/27 12:38:53;;;;;;;5.23;2.87;;;;;;;17.06;52.36;95298.25;6295753;28;20691;-57
2024/03/27 12:41:54;;;;;;;6.57;3.30;;;;;;;17.13;52.09;95333.41;6298561;28;20602;-56
2024/03/27 12:44:55;;;;;;;6.87;3.00;;;;;;;17.25;51.59;95319.91;6284587;28;20197;-59
2024/03/27 12:47:56;;;;;;;7.03;2.43;;;;;;;17.07;52.05;95324.00;6298094;28;20181;-58
2024/03/27 12:50:59;;;;;;;4.47;2.73;;;;;;;16.92;52.91;95320.13;6297383;28;20189;-58
2024/03/27 12:54:00;;;;;;;8.73;2.80;;;;;;;16.75;54.19;95320.41;6309740;28;20239;-57
2024/03/27 12:57:01;;;;;;;4.33;2.50;;;;;;;16.88;53.53;95300.41;6296248;28;20190;-56
2024/03/27 13:00:03;;;;;;;5.73;2.90;;;;;;;17.00;54.98;95305.00;6303190;28;20202;-55
2024/03/27 13:03:07;;;;;;;6.77;2.43;;;;;;;17.26;52.74;95310.72;6298305;28;20549;-57
2024/03/27 13:06:08;;;;;;;5.07;2.70;;;;;;;17.37;52.24;95316.38;6275923;28;20189;-59
2024/03/27 13:09:13;;;;;;;5.10;2.40;;;;;;;17.51;51.78;95307.91;6304955;28;20178;-59
2024/03/27 13:12:14;;;;;;;3.83;2.50;;;;;;;17.78;51.53;95326.00;6294784;28;20220;-59
2024/03/27 13:15:15;;;;;;;8.47;2.60;;;;;;;17.78;50.41;95323.31;6300511;28;20197;-58
2024/03/27 13:18:17;;;;;;;4.63;1.87;;;;;;;17.86;47.44;95310.00;6297759;28;20228;-58
2024/03/27 13:21:18;;;;;;;3.90;1.60;;;;;;;17.96;48.17;95320.25;6307742;28;20185;-58
2024/03/27 13:24:19;;;;;;;5.80;2.30;;;;;;;18.07;49.30;95315.91;6301212;28;20603;-56
2024/03/27 13:27:20;;;;;;;6.33;2.50;;;;;;;17.92;49.37;95317.47;6297810;28;20186;-58
2024/03/27 13:30:21;;;;;;;5.87;2.20;;;;;;;17.68;50.54;95299.50;6292722;28;20206;-59
2024/03/27 13:33:22;;;;;;;6.17;2.30;;;;;;;17.47;52.25;95315.91;6299043;28;20194;-59
2024/03/27 13:36:23;;;;;;;6.03;2.60;;;;;;;17.30;52.47;95316.19;6303782;28;20837;-57
2024/03/27 13:39:24;;;;;;;4.60;2.00;;;;;;;17.33;52.71;95307.44;6296449;28;20290;-57
2024/03/27 13:42:26;;;;;;;6.30;2.40;;;;;;;17.32;53.92;95313.94;6299267;28;20553;-57
2024/03/27 13:45:27;;;;;;;3.07;1.60;;;;;;;17.45;49.79;95320.06;6297228;28;20942;-60
2024/03/27 13:48:28;;;;;;;6.13;1.80;;;;;;;17.38;49.09;95315.25;6299884;28;20197;-57
2024/03/27 13:51:30;;;;;;;6.07;2.10;;;;;;;17.40;49.13;95314.94;6304438;28;20190;-60
2024/03/27 13:54:31;;;;;;;6.70;2.00;;;;;;;17.37;48.61;95310.22;6291995;28;20244;-57
2024/03/27 13:57:32;;;;;;;6.93;2.00;;;;;;;17.41;48.02;95305.72;6293208;28;20655;-59
2024/03/27 14:00:33;;;;;;;4.67;2.10;;;;;;;17.32;50.27;95305.88;6311676;28;20185;-57
2024/03/27 14:03:34;;;;;;;4.67;1.90;;;;;;;17.32;48.89;95313.16;6303877;28;20200;-59
2024/03/27 14:06:36;;;;;;;5.37;2.30;;;;;;;17.14;50.69;95321.53;6299863;28;20190;-59
2024/03/27 14:09:37;;;;;;;8.93;2.43;;;;;;;17.01;50.39;95311.94;6295124;28;20194;-59
2024/03/27 14:12:38;;;;;;;7.70;2.30;;;;;;;16.96;50.03;95317.53;6295755;28;20739;-59
2024/03/27 14:15:39;;;;;;;5.90;2.37;;;;;;;16.81;50.37;95308.28;6295458;28;20959;-59
2024/03/27 14:18:40;;;;;;;4.20;2.40;;;;;;;16.69;52.79;95308.25;6281872;28;20225;-57